Danville Regional Airport
KDAN : rendu visible

Aérodrome :











RETROUVEZ-NOUS SUR...

 
LOGIN :

S'inscrire | Disclaimer

   EN    FR    IT 

 









Légende :    VFR   VFR Marginal   IFR   IFR Intensif   IFR Très Intensif
Visi : 
Plafond : 
>= 8 km
>= 3000ft
5 à 8 km
1000 à 3000 ft
1500m à 5 km
500 à 1000 ft
800 à 1500m
200 à 500 ft
< 800m
< 200 ft
Symboles :   Orages  Brouillard  Fortes neiges  Fortes précipitations  Vent > 20 kt






- Altitude de l'aérodrome : 571 ft
- Code IATA : DAN


KDAN - Danville Regional

DERNIER METAR :
  • 190414Z AUTO 29003KT 5SM -RA BR BKN012 OVC018 12/11 A3006 RMK AO2 RAB13 P0000 T01170111

METARs EXPIRÉS :
  • 190404Z AUTO 29003KT 5SM BR SCT006 OVC017 12/11 A3006 RMK AO2 T01170111
  • 190319Z AUTO 29004KT 5SM BR BKN006 OVC050 12/11 A3007 RMK AO2 RAE03 P0000 T01170111
  • 190312Z AUTO 26004KT 5SM BR SCT006 BKN050 OVC080 12/11 A3007 RMK AO2 RAE03 P0000 T01170111
  • 190253Z AUTO 21003KT 4SM -RA BR FEW011 BKN050 OVC090 12/11 A3007 RMK AO2 SLP176 P0000 60011 T01170111 55003
  • 190153Z AUTO 30003KT 6SM -RA BR SCT075 OVC090 12/11 A3006 RMK AO2 SLP176 P0004 T01170111

TAF KDAN
Valide du 19 à 00h jusqu'au 20 à 00h UTC


182331Z 1900/1924 29004KT 6SM -SHRA SCT015 OVC050
TEMPO 1900/1903 3SM -SHRA BR OVC015
FM190300 VRB03KT 5SM BR VCSH OVC009
FM190700 33009KT 6SM BR OVC020
FM191100 01009KT P6SM OVC045
FM191900 02008KT P6SM SCT100



MET'MAP, la Météo Aéronautique d'un coup d'oeil ! - Copyright ORBIFLY Décembre 2007 - Disclaimer

ORBIFLY MET'MAP TEAM :

Programmation & Développement : Alexandra Zaïnal
Sur une idée originale de : Baudouin d'Aumeries
Assistance à la programmation : Marc-Olivier Méhu
Soutien technique & logistique : Manuel Goepfert

Contact : metmap@orbifly.com




SOURCES & CREDITS :

   NOAA       Earth
Advisory